createdAt,value
2023-04-29T00:00:02.469Z,1.01
2023-04-29T00:01:02.552Z,0.98
2023-04-29T00:02:02.548Z,0.99
2023-04-29T00:03:02.824Z,0.98
2023-04-29T00:04:02.829Z,0.99
2023-04-29T00:05:03.012Z,1.00
2023-04-29T00:06:02.997Z,0.99
2023-04-29T00:07:02.829Z,0.98
2023-04-29T00:08:02.864Z,0.96
2023-04-29T00:09:02.956Z,0.98
2023-04-29T00:10:03.006Z,0.98
2023-04-29T00:11:03.073Z,0.98
2023-04-29T00:12:03.141Z,0.99
2023-04-29T00:13:03.211Z,0.98
2023-04-29T00:14:03.245Z,0.98
2023-04-29T00:15:03.349Z,0.97
2023-04-29T00:16:03.394Z,0.98
2023-04-29T00:17:03.460Z,0.98
2023-04-29T00:18:03.603Z,0.98
2023-04-29T00:19:03.541Z,0.97
2023-04-29T00:20:03.636Z,0.95
2023-04-29T00:21:03.688Z,0.95
2023-04-29T00:22:03.760Z,0.96
2023-04-29T00:23:03.800Z,0.95
2023-04-29T00:24:03.869Z,0.96
2023-04-29T00:25:03.967Z,0.96
2023-04-29T00:26:03.984Z,0.95
2023-04-29T00:27:04.070Z,0.95
2023-04-29T00:28:04.102Z,0.95
2023-04-29T00:29:04.162Z,0.94
2023-04-29T00:30:04.253Z,0.94
2023-04-29T00:31:04.348Z,0.96
2023-04-29T00:32:04.363Z,0.95
2023-04-29T00:33:04.539Z,0.94
2023-04-29T00:34:04.469Z,0.94
2023-04-29T00:35:04.505Z,0.95
2023-04-29T00:36:04.684Z,0.94
2023-04-29T00:37:04.635Z,0.94
2023-04-29T00:38:04.740Z,0.93
2023-04-29T00:39:04.774Z,0.95
2023-04-29T00:40:04.846Z,0.95
2023-04-29T00:41:04.915Z,0.94
2023-04-29T00:42:04.950Z,0.94
2023-04-29T00:43:05.012Z,0.95
2023-04-29T00:44:05.090Z,0.92
2023-04-29T00:45:06.037Z,0.95
2023-04-29T00:46:05.239Z,0.94
2023-04-29T00:47:05.285Z,0.94
2023-04-29T00:48:05.402Z,0.95
2023-04-29T00:49:05.400Z,0.93
2023-04-29T00:50:05.509Z,0.92
2023-04-29T00:51:05.537Z,0.92
2023-04-29T00:52:05.573Z,0.95
2023-04-29T00:53:05.641Z,0.93
2023-04-29T00:54:05.732Z,0.93
2023-04-29T00:55:05.767Z,0.92
2023-04-29T00:56:05.843Z,0.94
2023-04-29T00:57:05.881Z,0.92
2023-04-29T00:58:05.935Z,0.93
2023-04-29T00:59:06.020Z,0.92
2023-04-29T01:00:06.053Z,0.93
2023-04-29T01:01:06.996Z,0.92
2023-04-29T01:02:06.139Z,0.93
2023-04-29T01:03:06.216Z,0.92
2023-04-29T01:04:06.388Z,0.92
2023-04-29T01:05:06.251Z,0.91
2023-04-29T01:06:06.261Z,0.92
2023-04-29T01:07:06.328Z,0.90
2023-04-29T01:08:06.347Z,0.91
2023-04-29T01:09:06.353Z,0.93
2023-04-29T01:10:06.424Z,0.90
2023-04-29T01:11:06.414Z,0.90
2023-04-29T01:12:06.484Z,0.92
2023-04-29T01:13:06.511Z,0.91
2023-04-29T01:14:06.519Z,0.91
2023-04-29T01:15:06.610Z,0.91
2023-04-29T01:16:06.733Z,0.91
2023-04-29T01:17:06.655Z,0.91
2023-04-29T01:18:06.750Z,0.91
2023-04-29T01:19:06.772Z,0.88
2023-04-29T01:20:06.768Z,0.89
2023-04-29T01:21:06.779Z,0.89
2023-04-29T01:22:06.782Z,0.89
2023-04-29T01:23:06.789Z,0.91
2023-04-29T01:24:06.778Z,0.89
2023-04-29T01:25:06.797Z,0.87
2023-04-29T01:26:06.879Z,0.90
2023-04-29T01:27:06.920Z,0.90
2023-04-29T01:28:06.964Z,0.90
2023-04-29T01:29:07.014Z,0.89
2023-04-29T01:30:07.060Z,0.90
2023-04-29T01:31:07.207Z,0.89
2023-04-29T01:32:07.193Z,0.91
2023-04-29T01:33:07.339Z,0.88
2023-04-29T01:34:07.270Z,0.90
2023-04-29T01:35:07.312Z,0.89
2023-04-29T01:36:07.320Z,0.88
2023-04-29T01:37:07.373Z,0.86
2023-04-29T01:38:07.421Z,0.90
2023-04-29T01:39:07.433Z,0.88
2023-04-29T01:40:07.440Z,0.88
2023-04-29T01:41:07.470Z,0.91
2023-04-29T01:42:07.454Z,0.86
2023-04-29T01:43:07.466Z,0.89
2023-04-29T01:44:07.474Z,0.89
2023-04-29T01:45:07.482Z,0.89
2023-04-29T01:46:07.547Z,0.88
2023-04-29T01:47:07.589Z,0.88
2023-04-29T01:48:07.756Z,0.86
2023-04-29T01:49:07.556Z,0.89
2023-04-29T01:50:07.624Z,0.86
2023-04-29T01:51:07.555Z,0.88
2023-04-29T01:52:07.624Z,0.87
2023-04-29T01:53:07.588Z,0.87
2023-04-29T01:54:07.608Z,0.87
2023-04-29T01:55:07.628Z,0.88
2023-04-29T01:56:07.623Z,0.87
2023-04-29T01:57:07.614Z,0.88
2023-04-29T01:58:07.642Z,0.87
2023-04-29T01:59:07.669Z,0.87
2023-04-29T02:00:07.708Z,0.86
2023-04-29T02:01:07.770Z,0.86
2023-04-29T02:02:07.680Z,0.88
2023-04-29T02:03:07.748Z,0.85
2023-04-29T02:04:07.825Z,0.85
2023-04-29T02:05:07.680Z,0.87
2023-04-29T02:06:07.698Z,0.86
2023-04-29T02:07:07.675Z,0.86
2023-04-29T02:08:07.679Z,0.85
2023-04-29T02:09:07.676Z,0.85
2023-04-29T02:10:07.678Z,0.84
2023-04-29T02:11:07.682Z,0.85
2023-04-29T02:12:07.752Z,0.86
2023-04-29T02:13:07.749Z,0.87
2023-04-29T02:14:07.771Z,0.86
2023-04-29T02:15:07.802Z,0.86
2023-04-29T02:16:07.815Z,0.88
2023-04-29T02:17:07.839Z,0.87
2023-04-29T02:18:07.966Z,0.86
2023-04-29T02:19:07.897Z,0.85
2023-04-29T02:20:07.939Z,0.84
2023-04-29T02:21:07.927Z,0.85
2023-04-29T02:22:07.904Z,0.83
2023-04-29T02:23:07.934Z,0.86
2023-04-29T02:24:07.947Z,0.85
2023-04-29T02:25:08.013Z,0.85
2023-04-29T02:26:07.939Z,0.86
2023-04-29T02:27:07.993Z,0.85
2023-04-29T02:28:07.983Z,0.85
2023-04-29T02:29:08.008Z,0.85
2023-04-29T02:30:07.976Z,0.84
2023-04-29T02:31:07.975Z,0.84
2023-04-29T02:32:08.078Z,0.84
2023-04-29T02:33:08.817Z,0.83
2023-04-29T02:34:07.983Z,0.84
2023-04-29T02:35:07.983Z,0.83
2023-04-29T02:36:07.996Z,0.85
2023-04-29T02:37:07.982Z,0.81
2023-04-29T02:38:07.993Z,0.84
2023-04-29T02:39:08.023Z,0.84
2023-04-29T02:40:08.003Z,0.82
2023-04-29T02:41:08.006Z,0.83
2023-04-29T02:42:08.049Z,0.82
2023-04-29T02:43:08.041Z,0.83
2023-04-29T02:44:08.047Z,0.83
2023-04-29T02:45:08.058Z,0.84
2023-04-29T02:46:08.096Z,0.82
2023-04-29T02:47:08.065Z,0.82
2023-04-29T02:48:08.145Z,0.81
2023-04-29T02:49:08.044Z,0.82
2023-04-29T02:50:08.099Z,0.82
2023-04-29T02:51:08.092Z,0.83
2023-04-29T02:52:08.075Z,0.80
2023-04-29T02:53:08.056Z,0.83
2023-04-29T02:54:08.088Z,0.81
2023-04-29T02:55:08.131Z,0.81
2023-04-29T02:56:08.164Z,0.82
2023-04-29T02:57:08.188Z,0.83
2023-04-29T02:58:08.220Z,0.81
2023-04-29T02:59:08.244Z,0.82
2023-04-29T03:00:08.241Z,0.81
2023-04-29T03:01:08.297Z,0.82
2023-04-29T03:02:08.259Z,0.81
2023-04-29T03:03:08.360Z,0.81
2023-04-29T03:04:08.540Z,0.82
2023-04-29T03:05:08.238Z,0.81
2023-04-29T03:06:08.238Z,0.82
2023-04-29T03:07:08.236Z,0.80
2023-04-29T03:08:08.230Z,0.80
2023-04-29T03:09:08.226Z,0.80
2023-04-29T03:10:08.200Z,0.81
2023-04-29T03:11:08.171Z,0.82
2023-04-29T03:12:08.172Z,0.80
2023-04-29T03:13:08.191Z,0.80
2023-04-29T03:14:08.282Z,0.81
2023-04-29T03:15:08.247Z,0.81
2023-04-29T03:16:08.210Z,0.81
2023-04-29T03:17:08.212Z,0.81
2023-04-29T03:18:08.311Z,0.80
2023-04-29T03:19:08.168Z,0.80
2023-04-29T03:20:08.175Z,0.80
2023-04-29T03:21:08.188Z,0.79
2023-04-29T03:22:08.138Z,0.79
2023-04-29T03:23:08.135Z,0.80
2023-04-29T03:24:08.133Z,0.79
2023-04-29T03:25:08.127Z,0.80
2023-04-29T03:26:08.171Z,0.80
2023-04-29T03:27:08.144Z,0.80
2023-04-29T03:28:08.123Z,0.80
2023-04-29T03:29:08.127Z,0.80
2023-04-29T03:30:08.102Z,0.79
2023-04-29T03:31:08.152Z,0.77
2023-04-29T03:32:08.102Z,0.80
2023-04-29T03:33:08.175Z,0.78
2023-04-29T03:34:08.072Z,0.78
2023-04-29T03:35:08.078Z,0.80
2023-04-29T03:36:08.074Z,0.80
2023-04-29T03:37:08.081Z,0.79
2023-04-29T03:38:08.087Z,0.80
2023-04-29T03:39:08.100Z,0.80
2023-04-29T03:40:08.057Z,0.79
2023-04-29T03:41:08.062Z,0.79
2023-04-29T03:42:08.059Z,0.78
2023-04-29T03:43:08.061Z,0.80
2023-04-29T03:44:08.051Z,0.80
2023-04-29T03:45:08.046Z,0.80
2023-04-29T03:46:08.115Z,0.80
2023-04-29T03:47:08.040Z,0.77
2023-04-29T03:48:08.245Z,0.80
2023-04-29T03:49:08.026Z,0.79
2023-04-29T03:50:08.033Z,0.80
2023-04-29T03:51:08.032Z,0.77
2023-04-29T03:52:08.059Z,0.79
2023-04-29T03:53:08.558Z,0.79
2023-04-29T03:54:08.047Z,0.78
2023-04-29T03:55:08.020Z,0.78
2023-04-29T03:56:08.034Z,0.79
2023-04-29T03:57:08.043Z,0.78
2023-04-29T03:58:08.023Z,0.78
2023-04-29T03:59:08.053Z,0.78
2023-04-29T04:00:08.044Z,0.78
2023-04-29T04:01:08.028Z,0.79
2023-04-29T04:02:08.068Z,0.79
2023-04-29T04:03:08.165Z,0.78
2023-04-29T04:04:08.254Z,0.79
2023-04-29T04:05:08.154Z,0.78
2023-04-29T04:06:08.031Z,0.79
2023-04-29T04:07:08.031Z,0.79
2023-04-29T04:08:08.007Z,0.76
2023-04-29T04:09:08.032Z,0.78
2023-04-29T04:10:07.994Z,0.77
2023-04-29T04:11:08.013Z,0.77
2023-04-29T04:12:08.002Z,0.77
2023-04-29T04:13:08.014Z,0.78
2023-04-29T04:14:08.022Z,0.77
2023-04-29T04:15:08.116Z,0.76
2023-04-29T04:16:08.053Z,0.77
2023-04-29T04:17:08.001Z,0.76
2023-04-29T04:18:08.039Z,0.77
2023-04-29T04:19:07.989Z,0.77
2023-04-29T04:20:07.979Z,0.75
2023-04-29T04:21:07.968Z,0.76
2023-04-29T04:22:07.958Z,0.75
2023-04-29T04:23:07.956Z,0.76
2023-04-29T04:24:07.977Z,0.75
2023-04-29T04:25:07.975Z,0.77
2023-04-29T04:26:07.964Z,0.75
2023-04-29T04:27:07.933Z,0.76
2023-04-29T04:28:07.938Z,0.75
2023-04-29T04:29:07.951Z,0.75
2023-04-29T04:30:07.914Z,0.76
2023-04-29T04:31:07.965Z,0.75
2023-04-29T04:32:07.970Z,0.75
2023-04-29T04:33:07.961Z,0.76
2023-04-29T04:34:07.931Z,0.77
2023-04-29T04:35:07.909Z,0.76
2023-04-29T04:36:07.907Z,0.76
2023-04-29T04:37:07.916Z,0.74
2023-04-29T04:38:07.955Z,0.76
2023-04-29T04:39:07.894Z,0.76
2023-04-29T04:40:07.927Z,0.76
2023-04-29T04:41:07.928Z,0.76
2023-04-29T04:42:07.907Z,0.75
2023-04-29T04:43:07.934Z,0.74
2023-04-29T04:44:07.881Z,0.77
2023-04-29T04:45:07.890Z,0.74
2023-04-29T04:46:07.933Z,0.75
2023-04-29T04:47:07.901Z,0.75
2023-04-29T04:48:07.936Z,0.74
2023-04-29T04:49:07.867Z,0.75
2023-04-29T04:50:07.851Z,0.74
2023-04-29T04:51:07.877Z,0.74
2023-04-29T04:52:07.859Z,0.76
2023-04-29T04:53:07.879Z,0.75
2023-04-29T04:54:07.878Z,0.73
2023-04-29T04:55:07.906Z,0.76
2023-04-29T04:56:07.909Z,0.73
2023-04-29T04:57:07.895Z,0.75
2023-04-29T04:58:07.892Z,0.74
2023-04-29T04:59:07.906Z,0.73
2023-04-29T05:00:07.903Z,0.74
2023-04-29T05:01:07.930Z,0.74
2023-04-29T05:02:07.907Z,0.73
2023-04-29T05:03:07.945Z,0.75
2023-04-29T05:04:07.899Z,0.73
2023-04-29T05:05:07.862Z,0.73
2023-04-29T05:06:07.871Z,0.72
2023-04-29T05:07:07.845Z,0.75
2023-04-29T05:08:07.856Z,0.73
2023-04-29T05:09:07.835Z,0.74
2023-04-29T05:10:07.859Z,0.72
2023-04-29T05:11:07.870Z,0.72
2023-04-29T05:12:07.852Z,0.72
2023-04-29T05:13:07.848Z,0.73
2023-04-29T05:14:53.464Z,0.50
2023-04-29T05:15:53.461Z,0.50
2023-04-29T05:16:53.534Z,0.50
2023-04-29T05:17:53.492Z,0.50
2023-04-29T05:18:53.450Z,0.50
2023-04-29T05:19:53.679Z,0.51
2023-04-29T05:20:53.488Z,0.50
2023-04-29T05:21:53.420Z,0.51
2023-04-29T05:22:53.424Z,0.50
2023-04-29T05:23:53.419Z,0.51
2023-04-29T05:24:53.395Z,0.50
2023-04-29T05:25:53.426Z,0.51
2023-04-29T05:26:53.388Z,0.51
2023-04-29T05:27:53.391Z,0.51
2023-04-29T05:28:53.379Z,0.52
2023-04-29T05:29:53.572Z,0.51
2023-04-29T05:30:53.411Z,0.50
2023-04-29T05:31:53.360Z,0.51
2023-04-29T05:32:53.380Z,0.51
2023-04-29T05:33:53.357Z,0.50
2023-04-29T05:34:53.339Z,0.51
2023-04-29T05:35:53.322Z,0.50
2023-04-29T05:36:53.401Z,0.51
2023-04-29T05:37:53.320Z,0.53
2023-04-29T05:38:53.322Z,0.51
2023-04-29T05:39:53.577Z,0.51
2023-04-29T05:40:53.297Z,0.51
2023-04-29T05:41:53.289Z,0.53
2023-04-29T05:42:53.289Z,0.52
2023-04-29T05:43:53.278Z,0.52
2023-04-29T05:44:53.249Z,0.53
2023-04-29T05:45:53.355Z,0.53
2023-04-29T05:46:53.249Z,0.52
2023-04-29T05:47:53.293Z,0.52
2023-04-29T05:48:53.264Z,0.52
2023-04-29T05:49:53.458Z,0.51
2023-04-29T05:50:53.266Z,0.51
2023-04-29T05:51:53.243Z,0.53
2023-04-29T05:52:53.213Z,0.51
2023-04-29T05:53:53.235Z,0.53
2023-04-29T05:54:53.208Z,0.52
2023-04-29T05:55:53.192Z,0.53
2023-04-29T05:56:53.209Z,0.51
2023-04-29T05:57:53.203Z,0.52
2023-04-29T05:58:53.183Z,0.52
2023-04-29T05:59:53.389Z,0.52
2023-04-29T06:00:53.180Z,0.51
2023-04-29T06:01:53.155Z,0.52
2023-04-29T06:02:58.594Z,0.53
2023-04-29T06:03:54.354Z,0.53
2023-04-29T06:04:53.418Z,0.53
2023-04-29T06:05:53.217Z,0.53
2023-04-29T06:06:53.128Z,0.52
2023-04-29T06:07:53.102Z,0.52
2023-04-29T06:08:53.106Z,0.52
2023-04-29T06:09:53.353Z,0.52
2023-04-29T06:10:53.108Z,0.51
2023-04-29T06:11:53.161Z,0.51
2023-04-29T06:12:53.253Z,0.51
2023-04-29T06:13:53.268Z,0.50
2023-04-29T06:14:53.323Z,0.52
2023-04-29T06:15:53.447Z,0.51
2023-04-29T06:16:53.504Z,0.51
2023-04-29T06:17:53.615Z,0.51
2023-04-29T06:18:53.592Z,0.51
2023-04-29T06:19:53.932Z,0.51
2023-04-29T06:20:53.708Z,0.51
2023-04-29T06:21:53.760Z,0.51
2023-04-29T06:22:53.827Z,0.51
2023-04-29T06:23:53.870Z,0.51
2023-04-29T06:24:53.954Z,0.52
2023-04-29T06:25:54.029Z,0.52
2023-04-29T06:26:54.065Z,0.52
2023-04-29T06:27:54.140Z,0.51
2023-04-29T06:28:54.218Z,0.51
2023-04-29T06:29:54.608Z,0.52
2023-04-29T06:30:54.301Z,0.51
2023-04-29T06:31:54.452Z,0.52
2023-04-29T06:32:54.460Z,0.51
2023-04-29T06:33:54.517Z,0.51
2023-04-29T06:34:54.568Z,0.52
2023-04-29T06:35:54.633Z,0.52
2023-04-29T06:36:54.680Z,0.52
2023-04-29T06:37:54.759Z,0.50
2023-04-29T06:38:54.824Z,0.51
2023-04-29T06:39:55.059Z,0.52
2023-04-29T06:40:54.924Z,0.51
2023-04-29T06:41:54.997Z,0.51
2023-04-29T06:42:55.084Z,0.52
2023-04-29T06:43:55.135Z,0.52
2023-04-29T06:44:55.247Z,0.52
2023-04-29T06:45:55.271Z,0.52
2023-04-29T06:46:55.332Z,0.51
2023-04-29T06:47:55.390Z,0.51
2023-04-29T06:48:55.412Z,0.52
2023-04-29T06:49:55.630Z,0.52
2023-04-29T06:50:55.519Z,0.52
2023-04-29T06:51:55.574Z,0.51
2023-04-29T06:52:55.645Z,0.51
2023-04-29T06:53:55.681Z,0.51
2023-04-29T06:54:55.780Z,0.51
2023-04-29T06:55:55.815Z,0.52
2023-04-29T06:56:55.883Z,0.52
2023-04-29T06:57:55.916Z,0.52
2023-04-29T06:58:55.975Z,0.52
2023-04-29T06:59:56.031Z,0.52
2023-04-29T07:00:56.165Z,0.51
2023-04-29T07:01:56.413Z,0.51
2023-04-29T07:02:56.303Z,0.51
2023-04-29T07:03:56.538Z,0.51
2023-04-29T07:04:56.386Z,0.52
2023-04-29T07:05:56.403Z,0.51
2023-04-29T07:06:56.488Z,0.51
2023-04-29T07:07:56.523Z,0.52
2023-04-29T07:08:57.207Z,0.51
2023-04-29T07:09:56.623Z,0.52
2023-04-29T07:10:56.711Z,0.51
2023-04-29T07:11:56.759Z,0.52
2023-04-29T07:12:56.830Z,0.52
2023-04-29T07:13:56.867Z,0.52
2023-04-29T07:14:56.881Z,0.52
2023-04-29T07:15:56.959Z,0.52
2023-04-29T07:16:57.048Z,0.51
2023-04-29T07:17:57.092Z,0.51
2023-04-29T07:18:57.101Z,0.52
2023-04-29T07:19:57.182Z,0.52
2023-04-29T07:20:57.206Z,0.52
2023-04-29T07:21:57.264Z,0.52
2023-04-29T07:22:57.324Z,0.53
2023-04-29T07:23:57.379Z,0.53
2023-04-29T07:24:57.443Z,0.52
2023-04-29T07:25:57.529Z,0.53
2023-04-29T07:26:57.577Z,0.52
2023-04-29T07:27:57.643Z,0.52
2023-04-29T07:28:57.646Z,0.52
2023-04-29T07:29:57.717Z,0.52
2023-04-29T07:30:57.786Z,0.52
2023-04-29T07:31:57.836Z,0.52
2023-04-29T07:32:57.907Z,0.52
2023-04-29T07:33:57.907Z,0.52
2023-04-29T07:34:57.947Z,0.52
2023-04-29T07:35:58.024Z,0.53
2023-04-29T07:36:58.065Z,0.53
2023-04-29T07:37:58.143Z,0.53
2023-04-29T07:38:58.182Z,0.53
2023-04-29T07:39:58.241Z,0.52
2023-04-29T07:40:58.265Z,0.55
2023-04-29T07:41:58.351Z,0.52
2023-04-29T07:42:58.390Z,0.52
2023-04-29T07:43:58.427Z,0.51
2023-04-29T07:44:58.524Z,0.52
2023-04-29T07:45:58.609Z,0.53
2023-04-29T07:46:58.630Z,0.52
2023-04-29T07:47:58.756Z,0.52
2023-04-29T07:48:58.760Z,0.52
2023-04-29T07:49:58.810Z,0.52
2023-04-29T07:50:58.857Z,0.52
2023-04-29T07:51:58.913Z,0.52
2023-04-29T07:52:58.955Z,0.52
2023-04-29T07:53:59.052Z,0.53
2023-04-29T07:54:59.072Z,0.53
2023-04-29T07:55:59.164Z,0.53
2023-04-29T07:56:59.215Z,0.53
2023-04-29T07:58:00.544Z,0.53
2023-04-29T07:58:59.330Z,0.52
2023-04-29T07:59:59.367Z,0.53
2023-04-29T08:00:59.433Z,0.54
2023-04-29T08:02:00.207Z,0.52
2023-04-29T08:02:59.665Z,0.54
2023-04-29T08:03:59.831Z,0.53
2023-04-29T08:04:59.982Z,0.53
2023-04-29T08:05:59.826Z,0.52
2023-04-29T08:06:59.796Z,0.52
2023-04-29T08:07:59.855Z,0.52
2023-04-29T08:09:01.152Z,0.52
2023-04-29T08:09:59.971Z,0.53
2023-04-29T08:11:00.047Z,0.53
2023-04-29T08:12:00.118Z,0.54
2023-04-29T08:13:00.164Z,0.54
2023-04-29T08:14:00.227Z,0.54
2023-04-29T08:15:00.269Z,0.55
2023-04-29T08:16:00.332Z,0.53
2023-04-29T08:17:00.385Z,0.53
2023-04-29T08:18:00.418Z,0.53
2023-04-29T08:19:00.472Z,0.53
2023-04-29T08:20:00.569Z,0.53
2023-04-29T08:21:00.600Z,0.53
2023-04-29T08:22:00.646Z,0.54
2023-04-29T08:23:00.689Z,0.54
2023-04-29T08:24:00.708Z,0.53
2023-04-29T08:25:00.779Z,0.53
2023-04-29T08:26:00.836Z,0.55
2023-04-29T08:27:00.858Z,0.54
2023-04-29T08:28:00.943Z,0.53
2023-04-29T08:29:01.021Z,0.53
2023-04-29T08:30:01.059Z,0.54
2023-04-29T08:31:01.111Z,0.54
2023-04-29T08:32:01.232Z,0.54
2023-04-29T08:33:01.250Z,0.53
2023-04-29T08:34:01.252Z,0.55
2023-04-29T08:35:01.266Z,0.54
2023-04-29T08:36:01.362Z,0.55
2023-04-29T08:37:01.382Z,0.54
2023-04-29T08:38:01.447Z,0.53
2023-04-29T08:39:01.468Z,0.54
2023-04-29T08:40:01.508Z,0.53
2023-04-29T08:41:01.570Z,0.54
2023-04-29T08:42:01.627Z,0.53
2023-04-29T08:43:01.662Z,0.54
2023-04-29T08:44:01.736Z,0.54
2023-04-29T08:45:01.778Z,0.54
2023-04-29T08:46:01.870Z,0.54
2023-04-29T08:47:01.923Z,0.53
2023-04-29T08:48:02.112Z,0.54
2023-04-29T08:49:02.002Z,0.54
2023-04-29T08:50:02.036Z,0.54
2023-04-29T08:51:02.098Z,0.55
2023-04-29T08:52:02.150Z,0.55
2023-04-29T08:53:02.174Z,0.55
2023-04-29T08:54:02.258Z,0.54
2023-04-29T08:55:02.271Z,0.55
2023-04-29T08:56:02.343Z,0.54
2023-04-29T08:57:02.373Z,0.53
2023-04-29T08:58:02.402Z,0.55
2023-04-29T08:59:02.489Z,0.56
2023-04-29T09:00:02.610Z,0.54
2023-04-29T09:01:02.610Z,0.55
2023-04-29T09:02:02.613Z,0.55
2023-04-29T09:03:02.750Z,0.55
2023-04-29T09:04:02.811Z,0.55
2023-04-29T09:05:02.944Z,0.56
2023-04-29T09:06:02.784Z,0.55
2023-04-29T09:07:02.868Z,0.56
2023-04-29T09:08:02.906Z,0.56
2023-04-29T09:09:02.981Z,0.55
2023-04-29T09:10:03.026Z,0.57
2023-04-29T09:11:03.074Z,0.55
2023-04-29T09:12:03.133Z,0.56
2023-04-29T09:13:03.124Z,0.55
2023-04-29T09:14:03.217Z,0.56
2023-04-29T09:15:03.267Z,0.56
2023-04-29T09:16:03.390Z,0.55
2023-04-29T09:17:03.356Z,0.56
2023-04-29T09:18:03.413Z,0.56
2023-04-29T09:19:03.462Z,0.57
2023-04-29T09:20:03.516Z,0.57
2023-04-29T09:21:03.536Z,0.56
2023-04-29T09:22:03.588Z,0.56
2023-04-29T09:23:03.651Z,0.57
2023-04-29T09:24:03.683Z,0.56
2023-04-29T09:25:03.709Z,0.56
2023-04-29T09:26:03.756Z,0.57
2023-04-29T09:27:03.777Z,0.57
2023-04-29T09:28:03.820Z,0.56
2023-04-29T09:29:03.870Z,0.55
2023-04-29T09:30:03.900Z,0.57
2023-04-29T09:31:03.950Z,0.57
2023-04-29T09:32:04.070Z,0.57
2023-04-29T09:33:04.146Z,0.57
2023-04-29T09:34:04.101Z,0.57
2023-04-29T09:35:04.133Z,0.57
2023-04-29T09:36:04.188Z,0.57
2023-04-29T09:37:04.217Z,0.55
2023-04-29T09:38:04.258Z,0.56
2023-04-29T09:39:04.321Z,0.57
2023-04-29T09:40:04.368Z,0.56
2023-04-29T09:41:04.405Z,0.57
2023-04-29T09:42:04.453Z,0.58
2023-04-29T09:43:04.508Z,0.58
2023-04-29T09:44:04.527Z,0.58
2023-04-29T09:45:04.582Z,0.57
2023-04-29T09:46:04.741Z,0.55
2023-04-29T09:47:04.708Z,0.56
2023-04-29T09:48:04.808Z,0.56
2023-04-29T09:49:04.769Z,0.57
2023-04-29T09:50:04.801Z,0.57
2023-04-29T09:51:04.868Z,0.57
2023-04-29T09:52:04.882Z,0.57
2023-04-29T09:53:04.921Z,0.57
2023-04-29T09:54:04.986Z,0.56
2023-04-29T09:55:05.041Z,0.56
2023-04-29T09:56:05.070Z,0.57
2023-04-29T09:57:05.089Z,0.56
2023-04-29T09:58:05.169Z,0.57
2023-04-29T09:59:05.183Z,0.55
2023-04-29T10:00:05.209Z,0.56
2023-04-29T10:01:05.341Z,0.56
2023-04-29T10:02:05.512Z,0.57
2023-04-29T10:03:05.388Z,0.58
2023-04-29T10:04:05.397Z,0.57
2023-04-29T10:05:05.519Z,0.58
2023-04-29T10:06:05.460Z,0.58
2023-04-29T10:07:05.522Z,0.56
2023-04-29T10:08:05.542Z,0.58
2023-04-29T10:09:05.586Z,0.58
2023-04-29T10:10:05.636Z,0.57
2023-04-29T10:11:05.765Z,0.56
2023-04-29T10:12:05.706Z,0.58
2023-04-29T10:13:05.760Z,0.57
2023-04-29T10:14:05.787Z,0.58
2023-04-29T10:15:05.855Z,0.59
2023-04-29T10:16:08.096Z,0.58
2023-04-29T10:17:05.920Z,0.58
2023-04-29T10:18:05.955Z,0.57
2023-04-29T10:19:05.992Z,0.58
2023-04-29T10:20:06.179Z,0.58
2023-04-29T10:21:06.076Z,0.58
2023-04-29T10:22:06.069Z,0.57
2023-04-29T10:23:06.129Z,0.58
2023-04-29T10:24:06.143Z,0.59
2023-04-29T10:25:06.182Z,0.58
2023-04-29T10:26:06.245Z,0.57
2023-04-29T10:27:06.301Z,0.58
2023-04-29T10:28:06.321Z,0.57
2023-04-29T10:29:06.374Z,0.58
2023-04-29T10:30:06.379Z,0.57
2023-04-29T10:31:06.472Z,0.57
2023-04-29T10:32:06.457Z,0.58
2023-04-29T10:33:06.548Z,0.58
2023-04-29T10:34:06.538Z,0.58
2023-04-29T10:35:06.543Z,0.58
2023-04-29T10:36:06.600Z,0.58
2023-04-29T10:37:06.621Z,0.57
2023-04-29T10:38:06.643Z,0.59
2023-04-29T10:39:06.727Z,0.58
2023-04-29T10:40:06.750Z,0.57
2023-04-29T10:41:06.798Z,0.58
2023-04-29T10:42:06.775Z,0.60
2023-04-29T10:43:06.841Z,0.58
2023-04-29T10:44:06.859Z,0.59
2023-04-29T10:45:06.872Z,0.57
2023-04-29T10:46:06.990Z,0.58
2023-04-29T10:47:07.004Z,0.57
2023-04-29T10:48:06.994Z,0.57
2023-04-29T10:49:07.027Z,0.58
2023-04-29T10:50:07.048Z,0.57
2023-04-29T10:51:07.083Z,0.59
2023-04-29T10:52:07.092Z,0.58
2023-04-29T10:53:07.194Z,0.57
2023-04-29T10:54:07.143Z,0.59
2023-04-29T10:55:07.201Z,0.57
2023-04-29T10:56:07.222Z,0.58
2023-04-29T10:57:07.255Z,0.57
2023-04-29T10:58:07.227Z,0.58
2023-04-29T10:59:07.269Z,0.59
2023-04-29T11:00:07.293Z,0.58
2023-04-29T11:01:07.399Z,0.57
2023-04-29T11:02:07.331Z,0.57
2023-04-29T11:03:07.381Z,0.56
2023-04-29T11:04:07.497Z,0.57
2023-04-29T11:05:07.426Z,0.57
2023-04-29T11:06:07.445Z,0.59
2023-04-29T11:07:07.462Z,0.58
2023-04-29T11:08:07.504Z,0.57
2023-04-29T11:09:07.513Z,0.58
2023-04-29T11:10:07.524Z,0.57
2023-04-29T11:11:08.300Z,0.57
2023-04-29T11:12:07.621Z,0.59
2023-04-29T11:13:07.628Z,0.58
2023-04-29T11:14:07.666Z,0.58
2023-04-29T11:15:07.664Z,0.58
2023-04-29T11:16:07.784Z,0.57
2023-04-29T11:17:07.708Z,0.58
2023-04-29T11:18:07.748Z,0.57
2023-04-29T11:19:07.742Z,0.57
2023-04-29T11:20:07.791Z,0.57
2023-04-29T11:21:07.826Z,0.57
2023-04-29T11:22:07.824Z,0.57
2023-04-29T11:23:07.823Z,0.58
2023-04-29T11:24:07.842Z,0.58
2023-04-29T11:25:07.924Z,0.57
2023-04-29T11:26:07.930Z,0.59
2023-04-29T11:27:07.945Z,0.57
2023-04-29T11:28:07.963Z,0.57
2023-04-29T11:29:07.968Z,0.57
2023-04-29T11:30:08.002Z,0.58
2023-04-29T11:31:08.073Z,0.58
2023-04-29T11:32:08.207Z,0.57
2023-04-29T11:33:08.271Z,0.59
2023-04-29T11:34:08.108Z,0.57
2023-04-29T11:35:08.154Z,0.57
2023-04-29T11:36:08.187Z,0.58
2023-04-29T11:37:08.201Z,0.57
2023-04-29T11:38:08.241Z,0.58
2023-04-29T11:39:08.267Z,0.57
2023-04-29T11:40:08.282Z,0.58
2023-04-29T11:41:08.392Z,0.58
2023-04-29T11:42:08.337Z,0.58
2023-04-29T11:43:08.342Z,0.59
2023-04-29T11:44:08.383Z,0.59
2023-04-29T11:45:08.442Z,0.58
2023-04-29T11:46:08.469Z,0.59
2023-04-29T11:47:08.445Z,0.60
2023-04-29T11:48:08.518Z,0.59
2023-04-29T11:49:08.448Z,0.59
2023-04-29T11:50:08.478Z,0.58
2023-04-29T11:51:08.517Z,0.57
2023-04-29T11:52:08.501Z,0.58
2023-04-29T11:53:08.505Z,0.58
2023-04-29T11:54:08.557Z,0.57
2023-04-29T11:55:08.563Z,0.57
2023-04-29T11:56:08.554Z,0.57
2023-04-29T11:57:08.593Z,0.58
2023-04-29T11:58:08.559Z,0.58
2023-04-29T11:59:08.589Z,0.57
2023-04-29T12:00:09.224Z,0.57
2023-04-29T12:01:08.628Z,0.57
2023-04-29T12:02:08.659Z,0.59
2023-04-29T12:03:08.824Z,0.58
2023-04-29T12:04:08.852Z,0.58
2023-04-29T12:05:09.005Z,0.57
2023-04-29T12:06:08.701Z,0.57
2023-04-29T12:07:08.688Z,0.58
2023-04-29T12:08:08.671Z,0.58
2023-04-29T12:09:08.730Z,0.58
2023-04-29T12:10:08.781Z,0.58
2023-04-29T12:11:08.704Z,0.59
2023-04-29T12:12:08.728Z,0.59
2023-04-29T12:13:10.090Z,0.58
2023-04-29T12:14:08.710Z,0.58
2023-04-29T12:15:08.717Z,0.58
2023-04-29T12:16:08.838Z,0.58
2023-04-29T12:17:08.755Z,0.58
2023-04-29T12:18:08.839Z,0.58
2023-04-29T12:19:08.785Z,0.60
2023-04-29T12:20:08.799Z,0.58
2023-04-29T12:21:08.787Z,0.57
2023-04-29T12:22:08.799Z,0.57
2023-04-29T12:23:08.802Z,0.57
2023-04-29T12:24:08.827Z,0.56
2023-04-29T12:25:08.796Z,0.56
2023-04-29T12:26:08.833Z,0.57
2023-04-29T12:27:08.829Z,0.57
2023-04-29T12:28:08.849Z,0.57
2023-04-29T12:29:08.841Z,0.56
2023-04-29T12:30:08.869Z,0.57
2023-04-29T12:31:08.927Z,0.57
2023-04-29T12:32:08.895Z,0.57
2023-04-29T12:33:09.019Z,0.56
2023-04-29T12:34:10.118Z,0.55
2023-04-29T12:35:08.885Z,0.55
2023-04-29T12:36:08.957Z,0.57
2023-04-29T12:37:08.960Z,0.57
2023-04-29T12:38:08.925Z,0.56
2023-04-29T12:39:08.931Z,0.55
2023-04-29T12:40:09.062Z,0.55
2023-04-29T12:41:08.970Z,0.56
2023-04-29T12:42:08.966Z,0.55
2023-04-29T12:43:08.962Z,0.56
2023-04-29T12:44:08.987Z,0.55
2023-04-29T12:45:09.000Z,0.55
2023-04-29T12:46:09.065Z,0.56
2023-04-29T12:47:09.000Z,0.56
2023-04-29T12:48:18.211Z,0.55
2023-04-29T12:49:09.945Z,0.56
2023-04-29T12:50:09.068Z,0.56
2023-04-29T12:51:08.965Z,0.56
2023-04-29T12:52:08.949Z,0.56
2023-04-29T12:53:08.927Z,0.56
2023-04-29T12:54:08.940Z,0.57
2023-04-29T12:55:08.925Z,0.57
2023-04-29T12:56:08.902Z,0.56
2023-04-29T12:57:09.797Z,0.57
2023-04-29T12:58:08.906Z,0.57
2023-04-29T12:59:08.894Z,0.56
2023-04-29T13:00:08.922Z,0.56
2023-04-29T13:01:09.441Z,0.55
2023-04-29T13:02:08.975Z,0.55
2023-04-29T13:03:09.044Z,0.55
2023-04-29T13:04:09.162Z,0.55
2023-04-29T13:05:08.942Z,0.54
2023-04-29T13:06:08.870Z,0.55
2023-04-29T13:07:08.913Z,0.54
2023-04-29T13:08:08.994Z,0.54
2023-04-29T13:09:09.983Z,0.55
2023-04-29T13:10:09.255Z,0.55
2023-04-29T13:11:09.137Z,0.55
2023-04-29T13:12:09.499Z,0.55
2023-04-29T13:13:09.280Z,0.54
2023-04-29T13:14:09.386Z,0.53
2023-04-29T13:15:09.403Z,0.54
2023-04-29T13:16:09.500Z,0.54
2023-04-29T13:17:10.676Z,0.55
2023-04-29T13:18:09.565Z,0.55
2023-04-29T13:19:26.503Z,0.55